Lincolnton, NC

1:43 PM EDT on March 25, 2017 (GMT -0400)
Lincolnton-Lincoln County Regional

Weather History for KIPJ - August, 2014

Change the Weather History Date:

Thursday, August 21, 2014

  Actual Average (KCLT) Record (KCLT)
Temperature  
Mean Temperature 78 °F -  
Max Temperature 92 °F 86 °F 103 °F (1983)
Min Temperature 65 °F 68 °F 56 °F (1998)
Cooling Degree Days 14    
Growing Degree Days 28 (Base 50)    
Moisture  
Dew Point 66 °F    
Average Humidity 69    
Maximum Humidity 95    
Minimum Humidity 34    
Precipitation  
Precipitation 0.00 in - - ()
Sea Level Pressure  
Sea Level Pressure 30.09 in    
Wind  
Wind Speed 1 mph (West)    
Max Wind Speed 5 mph    
Max Gust Speed -    
Visibility 10 miles    
Events      
Averages and records for this station are not official NWS values.
T = Trace of Precipitation, MM = Missing Value Source: NWS Daily Summary

Daily Weather History Graph

Daily Weather History Graph

Search for Another Location

Airport or City:

Trip Planner

Search our weather history database for the weather conditions in past years. The results will help you decide how hot, cold, wet, or windy it might be!

Date:

Astronomy

Aug. 21, 2014 Rise Set
Actual Time 6:48 AM EDT 8:06 PM EDT
Civil Twilight 6:21 AM EDT 8:32 PM EDT
Nautical Twilight 5:50 AM EDT 9:04 PM EDT
Astronomical Twilight 5:16 AM EDT 9:37 PM EDT
Moon 3:21 AM EDT (8/21) 5:31 PM EDT (8/21)
Length of Visible Light 14h 11m
Length of Day
13h 17m
Waning Crescent, 13% of the Moon is Illuminated
Aug 21
Waning Crescent
Aug 25
New
Sep 2
First Quarter
Sep 8
Full
Sep 15
Last Quarter

Hourly Weather History & Observations

Time (EDT) Temp. Heat Index Dew Point Humidity Pressure Visibility Wind Dir Wind Speed Gust Speed Precip Events Conditions
12:15 AM 77.2 °F - 65.7 °F 67% 30.05 in 10.0 mi Calm Calm - N/A   Clear
12:35 AM 75.7 °F - 65.8 °F 71% 30.04 in 10.0 mi Calm Calm - N/A   Clear
12:55 AM 73.9 °F - 66.4 °F 77% 30.03 in 10.0 mi SW 3.5 mph - N/A   Clear
1:15 AM 71.6 °F - 68.0 °F 88% 30.01 in 10.0 mi Calm Calm - N/A   Clear
1:35 AM 71.4 °F - 67.6 °F 88% 30.02 in 10.0 mi Calm Calm - N/A   Clear
1:55 AM 72.5 °F - 66.2 °F 81% 30.04 in 10.0 mi Calm Calm - N/A   Clear
2:15 AM 69.6 °F - 66.4 °F 89% 30.04 in 10.0 mi Calm Calm - N/A   Clear
2:35 AM 69.1 °F - 66.7 °F 92% 30.05 in 10.0 mi Calm Calm - N/A   Clear
2:55 AM 68.5 °F - 66.7 °F 94% 30.05 in 10.0 mi NW 3.5 mph - N/A   Clear
3:15 AM 69.8 °F - 65.8 °F 87% 30.05 in 10.0 mi Calm Calm - N/A   Clear
3:35 AM 67.6 °F - 65.1 °F 92% 30.05 in 10.0 mi West 3.5 mph - N/A   Clear
3:55 AM 67.3 °F - 65.7 °F 95% 30.05 in 10.0 mi West 3.5 mph - N/A   Clear
4:15 AM 66.2 °F - 64.6 °F 94% 30.05 in 10.0 mi Calm Calm - N/A   Clear
4:35 AM 67.3 °F - 65.5 °F 94% 30.05 in 10.0 mi Calm Calm - N/A   Clear
4:55 AM 66.4 °F - 64.4 °F 93% 30.05 in 10.0 mi Calm Calm - N/A   Clear
5:15 AM 67.3 °F - 64.8 °F 92% 30.05 in 10.0 mi West 3.5 mph - N/A   Clear
5:35 AM 68.2 °F - 64.4 °F 88% 30.07 in 10.0 mi Calm Calm - N/A   Clear
5:55 AM 68.4 °F - 64.0 °F 86% 30.07 in 10.0 mi Calm Calm - N/A   Clear
6:15 AM 66.7 °F - 64.4 °F 92% 30.07 in 10.0 mi Calm Calm - N/A   Clear
6:35 AM 67.3 °F - 63.7 °F 88% 30.08 in 10.0 mi Calm Calm - N/A   Clear
6:55 AM 65.5 °F - 63.1 °F 92% 30.08 in 10.0 mi WSW 3.5 mph - N/A   Clear
7:15 AM 65.3 °F - 63.7 °F 94% 30.09 in 10.0 mi West 3.5 mph - N/A   Clear
7:35 AM 65.5 °F - 63.9 °F 94% 30.10 in 10.0 mi Calm Calm - N/A   Clear
7:55 AM 67.1 °F - 64.4 °F 91% 30.10 in 10.0 mi Calm Calm - N/A   Clear
8:15 AM 70.7 °F - 64.0 °F 79% 30.10 in 10.0 mi Calm Calm - N/A   Clear
8:35 AM 72.3 °F - 65.8 °F 80% 30.11 in 10.0 mi Calm Calm - N/A   Clear
8:55 AM 74.5 °F - 65.8 °F 74% 30.12 in 10.0 mi Calm Calm - N/A   Clear
9:15 AM 75.0 °F - 67.1 °F 76% 30.13 in 10.0 mi Calm Calm - N/A   Clear
9:35 AM 77.4 °F - 65.5 °F 67% 30.13 in 10.0 mi Calm Calm - N/A   Clear
9:55 AM 78.8 °F - 65.5 °F 64% 30.13 in 10.0 mi Calm Calm - N/A   Clear
10:15 AM 81.1 °F 83.2 °F 65.8 °F 60% 30.14 in 10.0 mi NNW 3.5 mph - N/A   Clear
10:35 AM 81.7 °F 83.6 °F 65.8 °F 58% 30.14 in 10.0 mi NNW 3.5 mph - N/A   Clear
10:55 AM 84.0 °F 85.8 °F 64.9 °F 53% 30.14 in 10.0 mi Calm Calm - N/A   Clear
11:15 AM 85.3 °F 85.9 °F 62.1 °F 46% 30.13 in 10.0 mi Calm Calm - N/A   Clear
11:35 AM 86.4 °F 87.0 °F 62.4 °F 45% 30.14 in 10.0 mi NW 3.5 mph - N/A   Clear
11:55 AM 87.8 °F 88.5 °F 62.6 °F 43% 30.13 in 10.0 mi Calm Calm - N/A   Clear
12:15 PM 87.8 °F 87.6 °F 61.0 °F 40% 30.13 in 10.0 mi Calm Calm - N/A   Clear
12:35 PM 88.7 °F 88.8 °F 61.7 °F 40% 30.13 in 10.0 mi West 3.5 mph - N/A   Clear
12:55 PM 89.1 °F 89.3 °F 61.7 °F 40% 30.13 in 10.0 mi Calm Calm - N/A   Clear
1:15 PM 90.0 °F 89.4 °F 59.9 °F 36% 30.13 in 10.0 mi Calm Calm - N/A   Clear
1:35 PM 89.8 °F 89.1 °F 59.4 °F 36% 30.13 in 10.0 mi Calm Calm - N/A   Clear
1:55 PM 90.5 °F 89.8 °F 59.7 °F 35% 30.13 in 10.0 mi WNW 3.5 mph - N/A   Clear
2:15 PM 90.3 °F 89.3 °F 58.5 °F 34% 30.12 in 10.0 mi WNW 3.5 mph - N/A   Clear
2:35 PM 90.5 °F 89.8 °F 59.5 °F 35% 30.12 in 10.0 mi West 3.5 mph - N/A   Clear
2:55 PM 91.4 °F 91.4 °F 60.8 °F 36% 30.11 in 10.0 mi NE 4.6 mph - N/A   Clear
3:15 PM 91.0 °F 90.9 °F 60.4 °F 36% 30.11 in 10.0 mi Calm Calm - N/A   Clear
3:35 PM 91.8 °F 91.9 °F 61.2 °F 36% 30.10 in 10.0 mi WNW 3.5 mph - N/A   Clear
3:55 PM 92.1 °F 92.4 °F 61.5 °F 36% 30.10 in 10.0 mi West 4.6 mph - N/A   Clear
4:15 PM 92.3 °F 92.0 °F 60.4 °F 34% 30.09 in 10.0 mi Calm Calm - N/A   Clear
4:35 PM 91.2 °F 91.4 °F 61.9 °F 37% 30.08 in 10.0 mi Calm Calm - N/A   Clear
4:55 PM 91.6 °F 92.0 °F 61.9 °F 37% 30.08 in 10.0 mi Calm Calm - N/A   Clear
5:15 PM 91.4 °F 92.1 °F 62.4 °F 38% 30.07 in 10.0 mi ESE 3.5 mph - N/A   Clear
5:35 PM 91.6 °F 93.1 °F 64.4 °F 40% 30.07 in 10.0 mi Calm Calm - N/A   Clear
5:55 PM 90.1 °F 93.1 °F 66.6 °F 46% 30.07 in 10.0 mi Calm Calm - N/A   Clear
6:15 PM 87.1 °F 89.9 °F 66.7 °F 51% 30.08 in 10.0 mi SW 3.5 mph - N/A   Scattered Clouds
6:35 PM 87.1 °F 90.6 °F 68.2 °F 53% 30.08 in 10.0 mi SW 3.5 mph - N/A   Scattered Clouds
6:55 PM 86.5 °F 90.7 °F 68.9 °F 56% 30.08 in 10.0 mi Calm Calm - N/A   Clear
7:15 PM 84.7 °F 91.0 °F 72.7 °F 67% 30.08 in 10.0 mi Calm Calm - N/A   Clear
7:35 PM 82.4 °F 87.2 °F 71.8 °F 70% 30.08 in 10.0 mi Calm Calm - N/A   Clear
7:55 PM 81.1 °F 86.2 °F 73.2 °F 77% 30.09 in 10.0 mi Calm Calm - N/A   Clear
8:15 PM 79.3 °F - 72.5 °F 79% 30.09 in 10.0 mi Calm Calm - N/A   Clear
8:35 PM 77.9 °F - 74.3 °F 89% 30.09 in 10.0 mi Calm Calm - N/A   Clear
8:55 PM 77.5 °F - 73.4 °F 87% 30.10 in 10.0 mi Calm Calm - N/A   Clear
9:15 PM 76.8 °F - 73.4 °F 89% 30.10 in 10.0 mi Calm Calm - N/A   Clear
9:35 PM 75.4 °F - 73.2 °F 93% 30.09 in 10.0 mi Calm Calm - N/A   Clear
9:55 PM 75.0 °F - 72.7 °F 92% 30.09 in 10.0 mi Calm Calm - N/A   Clear
10:15 PM 74.5 °F - 72.1 °F 92% 30.09 in 10.0 mi Calm Calm - N/A   Clear
10:35 PM 74.7 °F - 72.0 °F 91% 30.09 in 10.0 mi Calm Calm - N/A   Clear
10:55 PM 73.8 °F - 71.6 °F 93% 30.08 in 10.0 mi Calm Calm - N/A   Clear
11:15 PM 73.8 °F - 71.6 °F 93% 30.08 in 10.0 mi Calm Calm - N/A   Clear
11:35 PM 73.4 °F - 71.6 °F 94% 30.08 in 10.0 mi Calm Calm - N/A   Clear
11:55 PM 74.7 °F - 71.8 °F 91% 30.09 in 10.0 mi Calm Calm - N/A   Clear